createdAt,value
2023-05-02T00:00:52.671Z,46.83
2023-05-02T00:03:19.811Z,46.92
2023-05-02T00:08:13.351Z,46.58
2023-05-02T00:10:40.360Z,46.83
2023-05-02T00:13:07.377Z,46.76
2023-05-02T00:15:34.405Z,46.94
2023-05-02T00:18:01.554Z,46.90
2023-05-02T00:20:28.576Z,46.78
2023-05-02T00:22:57.206Z,46.53
2023-05-02T00:25:24.235Z,46.45
2023-05-02T00:27:51.434Z,46.38
2023-05-02T00:30:18.849Z,46.44
2023-05-02T00:32:46.184Z,46.39
2023-05-02T00:35:13.234Z,46.58
2023-05-02T00:37:40.299Z,46.70
2023-05-02T00:40:08.341Z,46.97
2023-05-02T00:42:36.675Z,47.22
2023-05-02T00:45:07.198Z,47.56
2023-05-02T00:47:34.579Z,47.48
2023-05-02T00:50:02.358Z,47.32
2023-05-02T00:52:29.735Z,47.53
2023-05-02T00:54:56.731Z,47.54
2023-05-02T00:57:23.777Z,47.56
2023-05-02T00:59:51.199Z,47.85
2023-05-02T01:02:45.261Z,48.17
2023-05-02T01:05:17.791Z,47.98
2023-05-02T01:07:54.359Z,47.63
2023-05-02T01:10:59.011Z,47.59
2023-05-02T01:13:28.635Z,47.70
2023-05-02T01:15:56.803Z,47.74
2023-05-02T01:18:25.399Z,47.91
2023-05-02T01:20:57.574Z,48.09
2023-05-02T01:23:51.350Z,48.12
2023-05-02T01:26:28.189Z,48.34
2023-05-02T01:29:05.371Z,48.34
2023-05-02T01:31:37.127Z,48.33
2023-05-02T01:34:05.892Z,47.99
2023-05-02T01:36:32.918Z,47.71
2023-05-02T01:39:00.791Z,47.81
2023-05-02T01:41:29.319Z,47.90
2023-05-02T01:43:57.732Z,47.87
2023-05-02T01:46:28.732Z,47.74
2023-05-02T01:48:55.740Z,47.59
2023-05-02T01:51:22.869Z,47.63
2023-05-02T01:53:50.488Z,47.74
2023-05-02T01:56:17.712Z,47.67
2023-05-02T01:58:44.663Z,47.73
2023-05-02T02:01:11.803Z,48.04
2023-05-02T02:03:38.915Z,48.05
2023-05-02T02:06:06.038Z,47.84
2023-05-02T02:08:33.248Z,48.16
2023-05-02T02:11:01.813Z,48.36
2023-05-02T02:13:34.610Z,48.46
2023-05-02T02:16:02.593Z,48.40
2023-05-02T02:18:29.627Z,48.30
2023-05-02T02:20:57.428Z,48.30
2023-05-02T02:23:27.062Z,48.15
2023-05-02T02:25:53.988Z,48.13
2023-05-02T02:28:20.990Z,48.23
2023-05-02T02:30:48.357Z,48.30
2023-05-02T02:33:15.324Z,48.26
2023-05-02T02:35:43.460Z,48.52
2023-05-02T02:38:28.436Z,48.53
2023-05-02T02:40:57.748Z,48.39
2023-05-02T02:43:56.900Z,48.47
2023-05-02T02:47:01.007Z,48.60
2023-05-02T02:49:37.865Z,49.22
2023-05-02T02:52:07.815Z,50.27
2023-05-02T02:54:47.597Z,50.94
2023-05-02T02:57:24.610Z,50.90
2023-05-02T03:00:00.420Z,50.54
2023-05-02T03:02:29.562Z,51.26
2023-05-02T03:04:56.540Z,51.64
2023-05-02T03:07:23.645Z,51.48
2023-05-02T03:09:51.029Z,51.18
2023-05-02T03:12:21.303Z,51.27
2023-05-02T03:14:48.690Z,52.26
2023-05-02T03:17:15.652Z,52.73
2023-05-02T03:19:42.666Z,53.09
2023-05-02T03:22:09.744Z,53.78
2023-05-02T03:24:36.781Z,54.21
2023-05-02T03:27:04.744Z,55.17
2023-05-02T03:29:35.070Z,56.06
2023-05-02T03:32:02.253Z,56.60
2023-05-02T03:34:29.455Z,57.28
2023-05-02T03:36:57.152Z,58.37
2023-05-02T03:39:24.329Z,58.48
2023-05-02T03:41:51.363Z,58.15
2023-05-02T03:44:19.065Z,58.55
2023-05-02T03:46:47.144Z,59.07
2023-05-02T03:49:14.177Z,59.41
2023-05-02T03:51:42.459Z,59.87
2023-05-02T03:54:10.058Z,60.04
2023-05-02T03:56:42.195Z,60.06
2023-05-02T03:59:17.622Z,60.43
2023-05-02T04:01:45.012Z,60.37
2023-05-02T04:04:13.856Z,60.48
2023-05-02T04:06:47.039Z,60.26
2023-05-02T04:09:14.310Z,59.66
2023-05-02T04:11:48.548Z,58.66
2023-05-02T04:14:15.787Z,56.62
2023-05-02T04:16:51.072Z,54.87
2023-05-02T04:19:22.723Z,52.87
2023-05-02T04:21:49.718Z,51.48
2023-05-02T04:24:16.889Z,50.75
2023-05-02T04:26:44.892Z,50.34
2023-05-02T04:29:13.725Z,50.15
2023-05-02T04:31:41.380Z,50.17
2023-05-02T04:34:08.836Z,49.88
2023-05-02T04:36:41.387Z,49.71
2023-05-02T04:39:10.390Z,49.61
2023-05-02T04:41:40.850Z,49.44
2023-05-02T04:44:07.876Z,49.27
2023-05-02T04:46:35.599Z,49.36
2023-05-02T04:49:02.689Z,49.08
2023-05-02T04:51:32.079Z,48.94
2023-05-02T04:53:59.650Z,48.79
2023-05-02T04:56:27.164Z,48.83
2023-05-02T04:58:54.442Z,48.71
2023-05-02T05:01:22.131Z,48.52
2023-05-02T05:03:49.401Z,48.20
2023-05-02T05:06:17.589Z,48.07
2023-05-02T05:08:45.950Z,47.80
2023-05-02T05:11:13.650Z,47.33
2023-05-02T05:13:42.164Z,46.96
2023-05-02T05:16:09.948Z,46.15
2023-05-02T05:18:40.871Z,45.56
2023-05-02T05:21:10.316Z,45.27
2023-05-02T05:23:37.816Z,44.50
2023-05-02T05:26:16.128Z,43.88
2023-05-02T05:28:45.869Z,43.20
2023-05-02T05:31:16.834Z,42.78
2023-05-02T05:33:47.258Z,42.52
2023-05-02T05:36:17.455Z,42.19
2023-05-02T05:38:45.140Z,41.79
2023-05-02T05:41:12.751Z,40.97
2023-05-02T05:43:44.078Z,40.73
2023-05-02T05:46:11.070Z,40.75
2023-05-02T05:48:38.217Z,40.83
2023-05-02T05:51:05.771Z,41.01
2023-05-02T05:53:33.036Z,41.08
2023-05-02T05:56:11.896Z,41.00
2023-05-02T05:58:41.327Z,40.79
2023-05-02T06:01:08.456Z,40.74
2023-05-02T06:03:36.409Z,40.78
2023-05-02T06:06:03.956Z,40.56
2023-05-02T06:08:31.109Z,40.14
2023-05-02T06:10:58.146Z,39.76
2023-05-02T06:13:25.095Z,39.71
2023-05-02T06:15:52.245Z,39.82
2023-05-02T06:18:19.375Z,39.87
2023-05-02T06:20:46.462Z,39.19
2023-05-02T06:23:13.455Z,38.68
2023-05-02T06:25:40.543Z,38.50
2023-05-02T06:28:07.616Z,38.59
2023-05-02T06:30:34.630Z,38.63
2023-05-02T06:33:04.325Z,38.69
2023-05-02T06:35:31.304Z,38.60
2023-05-02T06:37:58.285Z,38.68
2023-05-02T06:40:25.431Z,38.91
2023-05-02T06:42:52.509Z,38.96
2023-05-02T06:45:19.671Z,38.72
2023-05-02T06:47:47.062Z,38.81
2023-05-02T06:50:14.309Z,38.80
2023-05-02T06:52:41.550Z,38.91
2023-05-02T06:55:09.096Z,39.09
2023-05-02T06:57:36.115Z,38.80
2023-05-02T07:00:03.729Z,38.07
2023-05-02T07:02:30.972Z,37.64
2023-05-02T07:04:58.049Z,37.36
2023-05-02T07:07:25.045Z,37.26
2023-05-02T07:09:52.503Z,37.33
2023-05-02T07:12:19.450Z,36.98
2023-05-02T07:14:47.256Z,36.71
2023-05-02T07:17:14.352Z,36.94
2023-05-02T07:19:43.310Z,37.09
2023-05-02T07:22:11.853Z,37.07
2023-05-02T07:24:42.177Z,37.05
2023-05-02T07:27:09.965Z,36.95
2023-05-02T07:29:37.287Z,36.88
2023-05-02T07:32:04.882Z,36.89
2023-05-02T07:34:32.462Z,36.93
2023-05-02T07:36:59.502Z,37.01
2023-05-02T07:39:26.556Z,36.73
2023-05-02T07:41:53.817Z,36.77
2023-05-02T07:44:21.574Z,36.46
2023-05-02T07:46:48.769Z,36.27
2023-05-02T07:49:15.893Z,35.55
2023-05-02T07:51:44.380Z,35.47
2023-05-02T07:54:18.651Z,35.88
2023-05-02T07:56:46.660Z,36.32
2023-05-02T07:59:13.964Z,36.05
2023-05-02T08:01:41.631Z,36.22
2023-05-02T08:04:10.815Z,36.01
2023-05-02T08:06:38.131Z,35.72
2023-05-02T08:09:05.421Z,35.59
2023-05-02T08:11:32.809Z,35.47
2023-05-02T08:13:59.865Z,35.45
2023-05-02T08:16:26.951Z,35.29
2023-05-02T08:18:53.980Z,34.93
2023-05-02T08:21:21.286Z,34.58
2023-05-02T08:23:48.271Z,34.46
2023-05-02T08:26:16.125Z,33.84
2023-05-02T08:28:43.340Z,33.99
2023-05-02T08:31:10.903Z,34.33
2023-05-02T08:33:37.930Z,34.23
2023-05-02T08:36:12.415Z,34.60
2023-05-02T08:38:39.455Z,34.49
2023-05-02T08:41:18.937Z,34.28
2023-05-02T08:43:46.504Z,33.91
2023-05-02T08:46:14.673Z,33.84
2023-05-02T08:48:42.704Z,33.80
2023-05-02T08:51:12.109Z,33.56
2023-05-02T08:53:39.563Z,33.46
2023-05-02T08:56:07.119Z,33.77
2023-05-02T08:58:34.154Z,33.78
2023-05-02T09:01:02.570Z,34.10
2023-05-02T09:03:32.937Z,34.02
2023-05-02T09:06:32.992Z,33.71
2023-05-02T09:09:00.486Z,33.22
2023-05-02T09:11:27.487Z,33.39
2023-05-02T09:13:54.543Z,33.52
2023-05-02T09:16:25.979Z,33.54
2023-05-02T09:18:54.295Z,33.54
2023-05-02T09:21:22.477Z,33.48
2023-05-02T09:23:54.850Z,33.22
2023-05-02T09:26:34.841Z,33.46
2023-05-02T09:29:02.973Z,33.51
2023-05-02T09:31:55.007Z,33.47
2023-05-02T09:34:22.909Z,33.46
2023-05-02T09:36:54.787Z,33.32
2023-05-02T09:39:31.671Z,33.25
2023-05-02T09:41:58.792Z,33.11
2023-05-02T09:44:27.012Z,33.18
2023-05-02T09:46:55.118Z,33.00
2023-05-02T09:49:42.539Z,32.94
2023-05-02T09:52:16.914Z,33.13
2023-05-02T09:54:44.009Z,33.02
2023-05-02T09:57:11.431Z,32.79
2023-05-02T09:59:41.853Z,32.69
2023-05-02T10:02:11.432Z,33.03
2023-05-02T10:04:39.269Z,32.89
2023-05-02T10:07:11.059Z,32.82
2023-05-02T10:09:42.168Z,32.51
2023-05-02T10:12:09.138Z,32.38
2023-05-02T10:14:44.084Z,32.47
2023-05-02T10:17:13.502Z,32.24
2023-05-02T10:19:57.591Z,31.97
2023-05-02T10:22:25.308Z,31.80
2023-05-02T10:24:53.063Z,31.37
2023-05-02T10:27:20.142Z,31.20
2023-05-02T10:29:47.180Z,30.85
2023-05-02T10:32:15.200Z,30.51
2023-05-02T10:34:42.236Z,30.73
2023-05-02T10:37:09.285Z,31.12
2023-05-02T10:39:36.236Z,31.14
2023-05-02T10:42:03.699Z,31.32
2023-05-02T10:44:40.724Z,31.64
2023-05-02T10:47:23.556Z,31.35
2023-05-02T10:49:51.225Z,31.44
2023-05-02T10:52:34.552Z,31.46
2023-05-02T10:55:20.723Z,31.42
2023-05-02T10:58:00.031Z,31.44
2023-05-02T11:00:33.927Z,31.28
2023-05-02T11:03:01.837Z,31.54
2023-05-02T11:05:29.304Z,31.54
2023-05-02T11:08:23.185Z,30.99
2023-05-02T11:10:50.485Z,31.38
2023-05-02T11:13:17.461Z,31.16
2023-05-02T11:15:44.811Z,30.96
2023-05-02T11:18:13.075Z,30.83
2023-05-02T11:20:44.165Z,31.21
2023-05-02T11:23:15.122Z,31.03
2023-05-02T11:25:43.744Z,30.81
2023-05-02T11:28:38.774Z,30.95
2023-05-02T11:31:06.402Z,31.00
2023-05-02T11:33:33.769Z,30.93
2023-05-02T11:36:01.432Z,30.88
2023-05-02T11:38:36.515Z,30.69
2023-05-02T11:41:04.591Z,30.73
2023-05-02T11:43:32.349Z,30.86
2023-05-02T11:46:00.524Z,30.83
2023-05-02T11:48:27.875Z,30.77
2023-05-02T11:51:02.381Z,30.77
2023-05-02T11:53:29.790Z,30.66
2023-05-02T11:56:04.628Z,30.60
2023-05-02T11:58:33.635Z,30.65
2023-05-02T12:01:13.725Z,30.51
2023-05-02T12:03:41.787Z,30.76
2023-05-02T12:06:13.967Z,30.58
2023-05-02T12:08:44.117Z,30.31
2023-05-02T12:11:13.896Z,30.42
2023-05-02T12:13:50.436Z,30.65
2023-05-02T12:16:18.179Z,30.91
2023-05-02T12:18:45.582Z,30.81
2023-05-02T12:21:12.660Z,30.30
2023-05-02T12:23:40.051Z,30.18
2023-05-02T12:26:20.330Z,30.36
2023-05-02T12:28:51.349Z,30.43
2023-05-02T12:31:18.653Z,30.47
2023-05-02T12:33:46.258Z,30.25
2023-05-02T12:36:13.560Z,29.79
2023-05-02T12:38:40.631Z,29.96
2023-05-02T12:41:07.769Z,29.92
2023-05-02T12:43:48.898Z,29.81
2023-05-02T12:46:16.910Z,30.09
2023-05-02T12:48:46.167Z,30.23
2023-05-02T12:51:24.158Z,30.22
2023-05-02T12:53:51.135Z,29.96
2023-05-02T12:56:18.172Z,30.21
2023-05-02T12:58:46.578Z,30.15
2023-05-02T13:01:14.372Z,30.16
2023-05-02T13:03:42.568Z,30.15
2023-05-02T13:06:10.168Z,30.07
2023-05-02T13:08:37.467Z,30.13
2023-05-02T13:11:04.712Z,29.99
2023-05-02T13:13:32.776Z,30.04
2023-05-02T13:16:00.027Z,30.11
2023-05-02T13:18:28.420Z,30.07
2023-05-02T13:20:55.560Z,29.74
2023-05-02T13:23:22.528Z,29.83
2023-05-02T13:25:49.728Z,29.96
2023-05-02T13:28:16.870Z,29.80
2023-05-02T13:30:43.927Z,29.85
2023-05-02T13:33:11.034Z,29.95
2023-05-02T13:35:38.147Z,29.91
2023-05-02T13:38:06.881Z,29.71
2023-05-02T13:40:35.266Z,29.70
2023-05-02T13:43:02.335Z,29.55
2023-05-02T13:45:29.389Z,29.64
2023-05-02T13:47:56.514Z,29.57
2023-05-02T13:50:23.952Z,29.36
2023-05-02T13:52:51.285Z,29.42
2023-05-02T13:55:18.464Z,29.32
2023-05-02T13:57:45.455Z,29.44
2023-05-02T14:00:12.993Z,29.55
2023-05-02T14:02:40.090Z,29.34
2023-05-02T14:05:07.830Z,29.61
2023-05-02T14:07:34.957Z,29.71
2023-05-02T14:10:02.157Z,29.69
2023-05-02T14:12:29.706Z,29.63
2023-05-02T14:14:56.716Z,29.71
2023-05-02T14:17:25.356Z,29.52
2023-05-02T14:19:52.527Z,29.51
2023-05-02T14:22:19.565Z,29.46
2023-05-02T14:24:46.565Z,29.53
2023-05-02T14:27:18.459Z,29.54
2023-05-02T14:29:46.271Z,29.85
2023-05-02T14:32:13.613Z,29.59
2023-05-02T14:34:40.939Z,29.71
2023-05-02T14:37:09.320Z,29.72
2023-05-02T14:39:37.034Z,29.67
2023-05-02T14:42:04.744Z,29.77
2023-05-02T14:44:32.136Z,29.78
2023-05-02T14:46:59.185Z,29.88
2023-05-02T14:49:26.322Z,29.93
2023-05-02T14:51:53.405Z,30.14
2023-05-02T14:54:21.142Z,29.71
2023-05-02T14:56:48.637Z,29.56
2023-05-02T14:59:15.732Z,29.79
2023-05-02T15:01:43.024Z,30.09
2023-05-02T15:04:10.769Z,30.00
2023-05-02T15:06:39.067Z,30.10
2023-05-02T15:09:06.294Z,29.92
2023-05-02T15:11:33.302Z,29.95
2023-05-02T15:14:00.491Z,30.08
2023-05-02T15:16:27.785Z,30.08
2023-05-02T15:18:55.253Z,30.38
2023-05-02T15:21:22.326Z,30.67
2023-05-02T15:23:49.320Z,30.84
2023-05-02T15:26:16.341Z,30.85
2023-05-02T15:28:43.615Z,30.72
2023-05-02T15:31:10.652Z,30.84
2023-05-02T15:33:38.507Z,30.68
2023-05-02T15:36:05.651Z,30.82
2023-05-02T15:38:34.214Z,30.81
2023-05-02T15:41:01.443Z,30.86
2023-05-02T15:43:28.527Z,30.67
2023-05-02T15:45:57.228Z,30.54
2023-05-02T15:48:27.158Z,30.75
2023-05-02T15:50:54.208Z,30.56
2023-05-02T15:53:23.151Z,30.65
2023-05-02T15:55:51.084Z,30.48
2023-05-02T15:58:18.268Z,30.19
2023-05-02T16:00:45.532Z,29.75
2023-05-02T16:03:12.556Z,29.72
2023-05-02T16:05:39.842Z,29.49
2023-05-02T16:08:06.829Z,29.35
2023-05-02T16:10:36.655Z,29.65
2023-05-02T16:13:03.755Z,29.69
2023-05-02T16:15:30.707Z,29.66
2023-05-02T16:17:57.930Z,29.69
2023-05-02T16:20:24.886Z,29.98
2023-05-02T16:22:52.135Z,30.13
2023-05-02T16:25:19.255Z,30.22
2023-05-02T16:27:46.270Z,30.32
2023-05-02T16:30:13.792Z,30.32
2023-05-02T16:32:40.931Z,30.48
2023-05-02T16:35:10.864Z,30.57
2023-05-02T16:37:37.952Z,30.55
2023-05-02T16:40:06.293Z,30.71
2023-05-02T16:42:34.488Z,30.91
2023-05-02T16:45:01.450Z,31.01
2023-05-02T16:47:28.585Z,30.80
2023-05-02T16:49:56.666Z,30.91
2023-05-02T16:52:23.734Z,30.73
2023-05-02T16:54:50.758Z,30.70
2023-05-02T16:57:19.909Z,30.77
2023-05-02T16:59:51.625Z,30.84
2023-05-02T17:02:20.114Z,31.03
2023-05-02T17:04:47.076Z,31.24
2023-05-02T17:07:14.090Z,31.13
2023-05-02T17:09:41.889Z,31.28
2023-05-02T17:12:10.530Z,31.32
2023-05-02T17:14:39.742Z,31.58
2023-05-02T17:17:06.829Z,31.65
2023-05-02T17:19:34.069Z,31.80
2023-05-02T17:22:01.726Z,31.83
2023-05-02T17:24:30.054Z,31.93
2023-05-02T17:26:57.075Z,32.10
2023-05-02T17:29:24.132Z,32.20
2023-05-02T17:31:51.279Z,32.32
2023-05-02T17:34:18.308Z,32.56
2023-05-02T17:36:46.494Z,32.66
2023-05-02T17:39:15.753Z,32.62
2023-05-02T17:41:42.716Z,32.78
2023-05-02T17:44:09.722Z,32.92
2023-05-02T17:46:37.951Z,33.18
2023-05-02T17:49:05.122Z,33.49
2023-05-02T17:51:33.888Z,33.45
2023-05-02T17:54:01.396Z,33.50
2023-05-02T17:56:28.696Z,33.77
2023-05-02T17:58:56.365Z,34.00
2023-05-02T18:01:23.481Z,34.12
2023-05-02T18:03:51.144Z,34.65
2023-05-02T18:06:18.585Z,35.12
2023-05-02T18:08:45.870Z,35.28
2023-05-02T18:11:16.834Z,35.63
2023-05-02T18:13:44.259Z,36.08
2023-05-02T18:16:11.401Z,36.36
2023-05-02T18:18:38.702Z,36.69
2023-05-02T18:21:09.873Z,36.88
2023-05-02T18:23:36.873Z,37.10
2023-05-02T18:26:04.186Z,37.56
2023-05-02T18:28:31.155Z,37.89
2023-05-02T18:30:58.106Z,38.35
2023-05-02T18:33:25.091Z,38.73
2023-05-02T18:35:52.078Z,38.96
2023-05-02T18:38:20.403Z,39.25
2023-05-02T18:40:47.399Z,39.46
2023-05-02T18:43:14.523Z,39.54
2023-05-02T18:45:41.907Z,40.05
2023-05-02T18:48:09.183Z,40.33
2023-05-02T18:50:36.348Z,40.53
2023-05-02T18:53:03.271Z,40.75
2023-05-02T18:55:32.474Z,40.85
2023-05-02T18:57:59.528Z,41.16
2023-05-02T19:00:26.560Z,41.20
2023-05-02T19:02:53.909Z,41.40
2023-05-02T19:05:21.621Z,41.73
2023-05-02T19:07:48.754Z,41.91
2023-05-02T19:10:15.974Z,41.98
2023-05-02T19:12:43.872Z,42.18
2023-05-02T19:15:11.658Z,42.51
2023-05-02T19:17:38.623Z,42.54
2023-05-02T19:20:06.394Z,42.62
2023-05-02T19:22:34.962Z,42.94
2023-05-02T19:25:02.388Z,43.22
2023-05-02T19:27:29.722Z,43.38
2023-05-02T19:29:58.363Z,43.53
2023-05-02T19:32:25.502Z,43.70
2023-05-02T19:34:52.538Z,43.89
2023-05-02T19:37:19.664Z,43.98
2023-05-02T19:39:46.656Z,44.20
2023-05-02T19:42:13.888Z,44.26
2023-05-02T19:44:41.087Z,44.51
2023-05-02T19:47:08.132Z,44.57
2023-05-02T19:49:35.290Z,44.63
2023-05-02T19:52:02.451Z,44.73
2023-05-02T19:54:29.471Z,44.79
2023-05-02T19:56:56.626Z,44.94
2023-05-02T19:59:23.699Z,45.28
2023-05-02T20:01:50.921Z,45.44
2023-05-02T20:04:19.514Z,45.75
2023-05-02T20:06:46.747Z,45.77
2023-05-02T20:09:13.811Z,46.01
2023-05-02T20:11:41.366Z,46.19
2023-05-02T20:14:08.552Z,46.29
2023-05-02T20:16:35.556Z,46.50
2023-05-02T20:19:02.734Z,46.65
2023-05-02T20:21:29.934Z,46.80
2023-05-02T20:23:56.953Z,46.91
2023-05-02T20:26:24.228Z,47.01
2023-05-02T20:28:51.359Z,47.17
2023-05-02T20:31:18.303Z,47.14
2023-05-02T20:33:46.246Z,47.32
2023-05-02T20:36:15.138Z,47.33
2023-05-02T20:38:43.054Z,47.53
2023-05-02T20:41:13.270Z,47.61
2023-05-02T20:43:47.179Z,47.48
2023-05-02T20:46:16.766Z,47.50
2023-05-02T20:48:43.971Z,47.44
2023-05-02T20:51:10.949Z,47.47
2023-05-02T20:53:38.377Z,47.31
2023-05-02T20:56:05.782Z,47.60
2023-05-02T20:58:32.787Z,47.60
2023-05-02T21:00:59.878Z,47.75
2023-05-02T21:03:27.516Z,47.67
2023-05-02T21:05:55.805Z,47.87
2023-05-02T21:08:22.966Z,47.84
2023-05-02T21:10:50.157Z,47.98
2023-05-02T21:13:17.542Z,47.97
2023-05-02T21:15:44.578Z,48.05
2023-05-02T21:18:12.046Z,48.08
2023-05-02T21:20:41.646Z,48.35
2023-05-02T21:23:11.366Z,48.35
2023-05-02T21:25:38.834Z,48.54
2023-05-02T21:28:06.248Z,48.53
2023-05-02T21:30:33.283Z,48.44
2023-05-02T21:33:00.346Z,48.51
2023-05-02T21:35:28.797Z,48.54
2023-05-02T21:37:56.015Z,48.86
2023-05-02T21:40:23.020Z,49.06
2023-05-02T21:42:50.163Z,49.12
2023-05-02T21:45:17.312Z,49.25
2023-05-02T21:47:44.700Z,49.67
2023-05-02T21:50:11.758Z,49.81
2023-05-02T21:52:38.911Z,50.02
2023-05-02T21:55:06.556Z,50.31
2023-05-02T21:57:33.540Z,50.53
2023-05-02T22:00:00.914Z,50.73
2023-05-02T22:02:28.424Z,50.79
2023-05-02T22:04:57.926Z,51.17
2023-05-02T22:07:25.195Z,51.41
2023-05-02T22:09:52.562Z,51.71
2023-05-02T22:12:24.408Z,51.89
2023-05-02T22:14:51.516Z,52.26
2023-05-02T22:17:18.630Z,52.19
2023-05-02T22:19:49.503Z,52.41
2023-05-02T22:22:16.482Z,52.78
2023-05-02T22:24:43.455Z,52.88
2023-05-02T22:27:10.527Z,53.39
2023-05-02T22:29:37.489Z,53.60
2023-05-02T22:32:04.564Z,53.77
2023-05-02T22:34:31.660Z,53.72
2023-05-02T22:36:58.655Z,53.68
2023-05-02T22:39:25.912Z,53.75
2023-05-02T22:41:52.919Z,54.10
2023-05-02T22:44:19.990Z,53.95
2023-05-02T22:46:47.007Z,54.22
2023-05-02T22:49:14.130Z,54.15
2023-05-02T22:51:41.654Z,54.41
2023-05-02T22:54:08.646Z,54.58
2023-05-02T22:56:35.739Z,54.54
2023-05-02T22:59:02.844Z,54.42
2023-05-02T23:01:29.885Z,54.52
2023-05-02T23:03:57.081Z,54.56
2023-05-02T23:06:24.319Z,54.73
2023-05-02T23:08:51.350Z,55.06
2023-05-02T23:11:18.294Z,55.04
2023-05-02T23:13:45.382Z,55.21
2023-05-02T23:16:12.379Z,55.21
2023-05-02T23:18:39.450Z,55.53
2023-05-02T23:21:06.584Z,55.49
2023-05-02T23:23:33.508Z,55.76
2023-05-02T23:26:00.477Z,55.74
2023-05-02T23:28:27.713Z,55.79
2023-05-02T23:30:54.730Z,55.89
2023-05-02T23:33:21.816Z,55.80
2023-05-02T23:35:48.922Z,56.10
2023-05-02T23:38:15.994Z,56.06
2023-05-02T23:40:42.952Z,56.23
2023-05-02T23:43:09.989Z,56.30
2023-05-02T23:45:37.071Z,56.50
2023-05-02T23:48:04.113Z,56.63
2023-05-02T23:50:32.308Z,56.62
2023-05-02T23:52:59.244Z,56.63
2023-05-02T23:55:26.193Z,57.04
2023-05-02T23:57:53.229Z,57.10
